Aegean Viii — SXKO — position and weather

sailwx.info

Track history (hours):
 
Tides and Currents Weather Stations Pressure Air Temp Water Temp Dewpoint Dewpoint Depression Visibility Wind Speed Wind Dir Waves Ship Positions

Aegean Viii

Last reported at 2016-Dec-10 10:09 UTC. Time now 2016-Dec-10 12:52 UTC.
Position N 38°02' E 023°32'.

Length 75 m; draft 3.8 m.

Type: Tanker. MMSI: 240732000.

Date/timePositionNaut miles runAvg speedWind from/ knotsBaromVisibWave heightAir tempDewpointWater temp
2016-Dec-10 10:09N 38°02' E 023°32'0 0.0
2016-Dec-10 09:33N 38°02' E 023°32'0 0.0
2016-Dec-09 14:23N 38°02' E 023°32'0 0.0
2016-Dec-09 13:33N 38°02' E 023°32'3 3.0
2016-Dec-09 12:33N 38°02' E 023°36'0 0.0
2016-Dec-09 11:34N 38°02' E 023°36'0 0.0
2016-Dec-09 10:33N 38°02' E 023°36'0 0.0
2016-Dec-09 09:33N 38°02' E 023°36'0 0.5
2016-Dec-09 08:33N 38°02' E 023°35'0 0.2
2016-Dec-09 07:33N 38°02' E 023°35'0 0.0
2016-Dec-09 06:33N 38°02' E 023°35'2 2.5
2016-Dec-09 05:33N 38°02' E 023°32'0 0.4
2016-Dec-09 04:33N 38°02' E 023°32'0 0.0
2016-Dec-08 12:22N 38°02' E 023°32'0 0.0
2016-Dec-08 11:33N 38°02' E 023°32'0 0.0
2016-Dec-08 10:34N 38°02' E 023°32'0 0.0
2016-Dec-08 09:34N 38°02' E 023°32'0 0.0
2016-Dec-08 08:34N 38°02' E 023°32'0 0.0
2016-Dec-08 07:33N 38°02' E 023°32'0 0.0
2016-Dec-08 06:34N 38°02' E 023°32'0 0.0
2016-Dec-08 05:33N 38°02' E 023°32'0 0.0
2016-Dec-07 12:30N 38°02' E 023°32'0 0.0
2016-Dec-07 11:33N 38°02' E 023°32'0 0.0
2016-Dec-07 10:33N 38°02' E 023°32'0 0.0
2016-Dec-07 09:33N 38°02' E 023°32'0 0.0
2016-Dec-07 08:34N 38°02' E 023°32'0 0.0
2016-Dec-07 07:33N 38°02' E 023°32'0 0.0
2016-Dec-07 06:33N 38°02' E 023°32'0 0.0
2016-Dec-07 05:33N 38°02' E 023°32'0 0.0
2016-Dec-06 10:20N 38°02' E 023°32'0 0.0
2016-Dec-06 09:33N 38°02' E 023°32'0 0.0
2016-Dec-06 08:33N 38°02' E 023°32'0 0.0
2016-Dec-06 07:33N 38°02' E 023°32'0 0.0
2016-Dec-06 06:33N 38°02' E 023°32'0 0.0
2016-Dec-06 05:33N 38°02' E 023°32'0 0.0
2016-Dec-05 14:21N 38°02' E 023°32'0 0.0
2016-Dec-05 13:34N 38°02' E 023°32'0 0.0
2016-Dec-05 12:33N 38°02' E 023°32'0 0.0
2016-Dec-05 11:33N 38°02' E 023°32'0 0.0
2016-Dec-05 10:33N 38°02' E 023°32'0 0.0
2016-Dec-05 09:34N 38°02' E 023°32'0 0.0
2016-Dec-05 08:33N 38°02' E 023°32'0 0.0
2016-Dec-05 07:34N 38°02' E 023°32'0 0.0
2016-Dec-05 06:34N 38°02' E 023°32'0 0.0
2016-Dec-05 05:33N 38°02' E 023°32'0 0.0
2016-Dec-04 14:30N 38°02' E 023°32'2 2.0
2016-Dec-04 13:33N 38°00' E 023°33'6 5.9
2016-Dec-04 12:34N 37°55' E 023°34'0 0.1
2016-Dec-04 11:33N 37°55' E 023°34'3 3.5
2016-Dec-04 10:33N 37°56' E 023°37'0 0.0
2016-Dec-04 09:33N 37°56' E 023°37'0 0.0
2016-Dec-04 08:33N 37°56' E 023°37'0 0.0
2016-Dec-04 07:33N 37°56' E 023°37'6 5.6
2016-Dec-04 06:34N 38°00' E 023°33'2 2.0
2016-Dec-04 05:33N 38°02' E 023°32'0 0.0
2016-Dec-04 04:33N 38°02' E 023°32'0 0.0
2016-Dec-04 03:33N 38°02' E 023°32'0 0.0
2016-Dec-04 02:33N 38°02' E 023°32'0 0.0
2016-Dec-02 12:32N 38°02' E 023°32'0 0.0
2016-Dec-02 11:33N 38°02' E 023°32'0 0.3
2016-Dec-02 10:33N 38°02' E 023°32'2 2.4
2016-Dec-02 09:33N 38°02' E 023°35'0 0.0
2016-Dec-02 08:33N 38°02' E 023°35'1 1.0
2016-Dec-02 07:34N 38°02' E 023°34'2 1.6
2016-Dec-02 06:33N 38°02' E 023°32'0 0.0
2016-Dec-02 05:33N 38°02' E 023°32'0 0.0
2016-Dec-01 18:33N 38°02' E 023°32'3 2.9
2016-Dec-01 17:33N 38°02' E 023°36'0 0.0
2016-Dec-01 16:34N 38°02' E 023°36'0 0.0
2016-Dec-01 15:32N 38°02' E 023°36'0 0.1
2016-Dec-01 14:32N 38°02' E 023°36'1 0.6
2016-Dec-01 13:33N 38°02' E 023°35'2 2.4
2016-Dec-01 12:33N 38°02' E 023°32'0 0.0
2016-Dec-01 11:33N 38°02' E 023°32'0 0.0
2016-Dec-01 10:33N 38°02' E 023°32'0 0.0
2016-Dec-01 09:33N 38°02' E 023°32'0 0.0
2016-Dec-01 08:34N 38°02' E 023°32'0 0.0
2016-Dec-01 07:33N 38°02' E 023°32'0 0.0
2016-Dec-01 06:33N 38°02' E 023°32'0 0.0
2016-Dec-01 05:33N 38°02' E 023°32'0 0.0
2016-Nov-30 13:26N 38°02' E 023°32'0 0.0
2016-Nov-30 12:33N 38°02' E 023°32'5 4.8
2016-Nov-30 11:33N 37°58' E 023°33'3 2.6
2016-Nov-30 10:33N 37°58' E 023°36'  
Track history (hours):
 
Tides and Currents Weather Stations Pressure Air Temp Water Temp Dewpoint Dewpoint Depression Visibility Wind Speed Wind Dir Waves Ship Positions

Aegean Viii

Last reported at 2016-Dec-10 10:09 UTC. Time now 2016-Dec-10 12:52 UTC.
Position N 38°02' E 023°32'.

Length 75 m; draft 3.8 m.

Type: Tanker. MMSI: 240732000.

Date/timePositionNaut miles runAvg speedWind from/ knotsBaromVisibWave heightAir tempDewpointWater temp
2016-Dec-10 10:09N 38°02' E 023°32'0 0.0
2016-Dec-10 09:33N 38°02' E 023°32'0 0.0
2016-Dec-09 14:23N 38°02' E 023°32'0 0.0
2016-Dec-09 13:33N 38°02' E 023°32'3 3.0
2016-Dec-09 12:33N 38°02' E 023°36'0 0.0
2016-Dec-09 11:34N 38°02' E 023°36'0 0.0
2016-Dec-09 10:33N 38°02' E 023°36'0 0.0
2016-Dec-09 09:33N 38°02' E 023°36'0 0.5
2016-Dec-09 08:33N 38°02' E 023°35'0 0.2
2016-Dec-09 07:33N 38°02' E 023°35'0 0.0
2016-Dec-09 06:33N 38°02' E 023°35'2 2.5
2016-Dec-09 05:33N 38°02' E 023°32'0 0.4
2016-Dec-09 04:33N 38°02' E 023°32'0 0.0
2016-Dec-08 12:22N 38°02' E 023°32'0 0.0
2016-Dec-08 11:33N 38°02' E 023°32'0 0.0
2016-Dec-08 10:34N 38°02' E 023°32'0 0.0
2016-Dec-08 09:34N 38°02' E 023°32'0 0.0
2016-Dec-08 08:34N 38°02' E 023°32'0 0.0
2016-Dec-08 07:33N 38°02' E 023°32'0 0.0
2016-Dec-08 06:34N 38°02' E 023°32'0 0.0
2016-Dec-08 05:33N 38°02' E 023°32'0 0.0
2016-Dec-07 12:30N 38°02' E 023°32'0 0.0
2016-Dec-07 11:33N 38°02' E 023°32'0 0.0
2016-Dec-07 10:33N 38°02' E 023°32'0 0.0
2016-Dec-07 09:33N 38°02' E 023°32'0 0.0
2016-Dec-07 08:34N 38°02' E 023°32'0 0.0
2016-Dec-07 07:33N 38°02' E 023°32'0 0.0
2016-Dec-07 06:33N 38°02' E 023°32'0 0.0
2016-Dec-07 05:33N 38°02' E 023°32'0 0.0
2016-Dec-06 10:20N 38°02' E 023°32'0 0.0
2016-Dec-06 09:33N 38°02' E 023°32'0 0.0
2016-Dec-06 08:33N 38°02' E 023°32'0 0.0
2016-Dec-06 07:33N 38°02' E 023°32'0 0.0
2016-Dec-06 06:33N 38°02' E 023°32'0 0.0
2016-Dec-06 05:33N 38°02' E 023°32'0 0.0
2016-Dec-05 14:21N 38°02' E 023°32'0 0.0
2016-Dec-05 13:34N 38°02' E 023°32'0 0.0
2016-Dec-05 12:33N 38°02' E 023°32'0 0.0
2016-Dec-05 11:33N 38°02' E 023°32'0 0.0
2016-Dec-05 10:33N 38°02' E 023°32'0 0.0
2016-Dec-05 09:34N 38°02' E 023°32'0 0.0
2016-Dec-05 08:33N 38°02' E 023°32'0 0.0
2016-Dec-05 07:34N 38°02' E 023°32'0 0.0
2016-Dec-05 06:34N 38°02' E 023°32'0 0.0
2016-Dec-05 05:33N 38°02' E 023°32'0 0.0
2016-Dec-04 14:30N 38°02' E 023°32'2 2.0
2016-Dec-04 13:33N 38°00' E 023°33'6 5.9
2016-Dec-04 12:34N 37°55' E 023°34'0 0.1
2016-Dec-04 11:33N 37°55' E 023°34'3 3.5
2016-Dec-04 10:33N 37°56' E 023°37'0 0.0
2016-Dec-04 09:33N 37°56' E 023°37'0 0.0
2016-Dec-04 08:33N 37°56' E 023°37'0 0.0
2016-Dec-04 07:33N 37°56' E 023°37'6 5.6
2016-Dec-04 06:34N 38°00' E 023°33'2 2.0
2016-Dec-04 05:33N 38°02' E 023°32'0 0.0
2016-Dec-04 04:33N 38°02' E 023°32'0 0.0
2016-Dec-04 03:33N 38°02' E 023°32'0 0.0
2016-Dec-04 02:33N 38°02' E 023°32'0 0.0
2016-Dec-02 12:32N 38°02' E 023°32'0 0.0
2016-Dec-02 11:33N 38°02' E 023°32'0 0.3
2016-Dec-02 10:33N 38°02' E 023°32'2 2.4
2016-Dec-02 09:33N 38°02' E 023°35'0 0.0
2016-Dec-02 08:33N 38°02' E 023°35'1 1.0
2016-Dec-02 07:34N 38°02' E 023°34'2 1.6
2016-Dec-02 06:33N 38°02' E 023°32'0 0.0
2016-Dec-02 05:33N 38°02' E 023°32'0 0.0
2016-Dec-01 18:33N 38°02' E 023°32'3 2.9
2016-Dec-01 17:33N 38°02' E 023°36'0 0.0
2016-Dec-01 16:34N 38°02' E 023°36'0 0.0
2016-Dec-01 15:32N 38°02' E 023°36'0 0.1
2016-Dec-01 14:32N 38°02' E 023°36'1 0.6
2016-Dec-01 13:33N 38°02' E 023°35'2 2.4
2016-Dec-01 12:33N 38°02' E 023°32'0 0.0
2016-Dec-01 11:33N 38°02' E 023°32'0 0.0
2016-Dec-01 10:33N 38°02' E 023°32'0 0.0
2016-Dec-01 09:33N 38°02' E 023°32'0 0.0
2016-Dec-01 08:34N 38°02' E 023°32'0 0.0
2016-Dec-01 07:33N 38°02' E 023°32'0 0.0
2016-Dec-01 06:33N 38°02' E 023°32'0 0.0
2016-Dec-01 05:33N 38°02' E 023°32'0 0.0
2016-Nov-30 13:26N 38°02' E 023°32'0 0.0
2016-Nov-30 12:33N 38°02' E 023°32'5 4.8
2016-Nov-30 11:33N 37°58' E 023°33'3 2.6
2016-Nov-30 10:33N 37°58' E 023°36'  

Dump ship's entire track history